MiSS Allie — WDG3664 — position and weather

sailwx.info

Track history (hours):
 
Tides and Currents Weather Stations Pressure Air Temp Water Temp Dewpoint Dewpoint Depression Visibility Wind Speed Wind Dir Waves Ship Positions

MiSS Allie

Owner: Genesis Marine, LLC, Houston, TX. More information available from US FCC via Universal Licensing System and Coast Guard Vessel Documentation Center.

Last reported at 2017-Nov-12 13:22 UTC. Time now 2017-Nov-21 01:00 UTC.
Position N 32°37' W 091°09'.
Warning: this ship's position is 8 days out of date.

Length 29 m; draft 3.2 m.

Type: Other ship. MMSI: 367528420.

Date/timePositionNaut miles runAvg speedWind from/ knotsBaromVisibWave heightAir tempDewpointWater temp
2017-Nov-12 13:22N 32°37' W 091°09'2 4.5
2017-Nov-12 12:52N 32°35' W 091°08'2 4.8
2017-Nov-12 12:30N 32°34' W 091°06'4 4.5
2017-Nov-12 11:35N 32°30' W 091°07'0 5.7
2017-Nov-12 11:30N 32°29' W 091°07'2 5.0
2017-Nov-12 11:00N 32°27' W 091°05'3 5.1
2017-Nov-12 10:30N 32°26' W 091°03'3 5.0
2017-Nov-12 10:00N 32°25' W 090°60'2 4.1
2017-Nov-12 09:30N 32°23' W 090°60'2 4.2
2017-Nov-12 09:00N 32°21' W 090°59'3 5.3
2017-Nov-12 08:30N 32°21' W 090°56'2 4.3
2017-Nov-12 08:00N 32°19' W 090°54'3 5.2
2017-Nov-12 07:30N 32°17' W 090°56'3 5.1
2017-Nov-12 07:00N 32°16' W 090°58'2 4.3
2017-Nov-12 06:30N 32°14' W 090°59'2 4.9
2017-Nov-12 06:00N 32°11' W 090°60'2 4.9
2017-Nov-12 05:30N 32°09' W 091°00'2 4.4
2017-Nov-12 05:00N 32°07' W 091°02'3 4.7
2017-Nov-12 04:17N 32°08' W 091°06'1 4.5
2017-Nov-12 04:00N 32°07' W 091°07'5 4.8
2017-Nov-12 03:01N 32°03' W 091°03'0 5.9
2017-Nov-12 02:57N 32°03' W 091°04'  
Track history (hours):
 
Tides and Currents Weather Stations Pressure Air Temp Water Temp Dewpoint Dewpoint Depression Visibility Wind Speed Wind Dir Waves Ship Positions

MiSS Allie

Owner: Genesis Marine, LLC, Houston, TX. More information available from US FCC via Universal Licensing System and Coast Guard Vessel Documentation Center.

Last reported at 2017-Nov-12 13:22 UTC. Time now 2017-Nov-21 01:00 UTC.
Position N 32°37' W 091°09'.
Warning: this ship's position is 8 days out of date.

Length 29 m; draft 3.2 m.

Type: Other ship. MMSI: 367528420.

Date/timePositionNaut miles runAvg speedWind from/ knotsBaromVisibWave heightAir tempDewpointWater temp
2017-Nov-12 13:22N 32°37' W 091°09'2 4.5
2017-Nov-12 12:52N 32°35' W 091°08'2 4.8
2017-Nov-12 12:30N 32°34' W 091°06'4 4.5
2017-Nov-12 11:35N 32°30' W 091°07'0 5.7
2017-Nov-12 11:30N 32°29' W 091°07'2 5.0
2017-Nov-12 11:00N 32°27' W 091°05'3 5.1
2017-Nov-12 10:30N 32°26' W 091°03'3 5.0
2017-Nov-12 10:00N 32°25' W 090°60'2 4.1
2017-Nov-12 09:30N 32°23' W 090°60'2 4.2
2017-Nov-12 09:00N 32°21' W 090°59'3 5.3
2017-Nov-12 08:30N 32°21' W 090°56'2 4.3
2017-Nov-12 08:00N 32°19' W 090°54'3 5.2
2017-Nov-12 07:30N 32°17' W 090°56'3 5.1
2017-Nov-12 07:00N 32°16' W 090°58'2 4.3
2017-Nov-12 06:30N 32°14' W 090°59'2 4.9
2017-Nov-12 06:00N 32°11' W 090°60'2 4.9
2017-Nov-12 05:30N 32°09' W 091°00'2 4.4
2017-Nov-12 05:00N 32°07' W 091°02'3 4.7
2017-Nov-12 04:17N 32°08' W 091°06'1 4.5
2017-Nov-12 04:00N 32°07' W 091°07'5 4.8
2017-Nov-12 03:01N 32°03' W 091°03'0 5.9
2017-Nov-12 02:57N 32°03' W 091°04'  

Dump ship's entire track history